Time;durP1;ratioP1;P1;durP2;ratioP2;P2;SDS_P1;SDS_P2;PMS_P1;PMS_P2;Temp;Humidity;BMP_temperature;BMP_pressure;BME280_temperature;BME280_humidity;BME280_pressure;Samples;Min_cycle;Max_cycle;Signal;HPM_P1;HPM_P2
2020/12/29 00:01:50;;;;;;;3.28;2.08;;;1.90;99.90;;;;;;5053324;28;20448;-90
2020/12/29 00:04:19;;;;;;;2.80;1.75;;;2.00;99.90;;;;;;5047825;28;20244;-90
2020/12/29 00:06:47;;;;;;;2.20;1.50;;;1.90;99.90;;;;;;5038517;28;20207;-88
2020/12/29 00:09:14;;;;;;;3.75;2.67;;;1.70;99.90;;;;;;5038200;28;20564;-88
2020/12/29 00:11:45;;;;;;;2.83;1.77;;;1.80;99.90;;;;;;5038923;28;20226;-95
2020/12/29 00:14:13;;;;;;;2.97;1.67;;;1.70;99.90;;;;;;5038534;28;20238;-89
2020/12/29 00:16:43;;;;;;;2.63;1.33;;;1.70;99.90;;;;;;5037370;28;20213;-89
2020/12/29 00:19:14;;;;;;;2.53;1.70;;;-0.20;99.90;;;;;;5037748;28;20204;-88
2020/12/29 00:21:43;;;;;;;3.57;2.10;;;1.80;99.90;;;;;;5032845;28;20209;-92
2020/12/29 00:24:10;;;;;;;2.88;1.67;;;1.70;99.90;;;;;;5037421;28;20481;-90
2020/12/29 00:26:39;;;;;;;2.00;1.42;;;2.10;99.90;;;;;;5037744;28;20205;-89
2020/12/29 00:29:07;;;;;;;2.90;1.40;;;3.30;99.90;;;;;;5036808;28;20308;-89
2020/12/29 00:31:35;;;;;;;3.28;1.70;;;2.10;99.90;;;;;;5037892;28;20213;-88
2020/12/29 00:34:02;;;;;;;2.75;1.90;;;2.00;99.90;;;;;;5037580;28;20226;-88
2020/12/29 00:36:29;;;;;;;2.60;1.88;;;2.00;99.90;;;;;;5037298;28;20218;-89
2020/12/29 00:38:56;;;;;;;2.95;1.80;;;2.00;99.90;;;;;;5037369;28;20236;-92
2020/12/29 00:41:23;;;;;;;2.42;1.60;;;2.00;99.90;;;;;;5037592;28;20209;-90
2020/12/29 00:43:50;;;;;;;3.22;1.95;;;4.20;99.90;;;;;;5037272;28;20225;-88
2020/12/29 00:46:19;;;;;;;2.50;1.73;;;2.80;99.90;;;;;;5036877;28;20202;-89
2020/12/29 00:48:46;;;;;;;2.83;1.77;;;3.90;99.90;;;;;;5036544;28;20226;-89
2020/12/29 00:51:14;;;;;;;3.05;2.15;;;3.80;99.90;;;;;;5036982;28;20913;-89
2020/12/29 00:53:42;;;;;;;4.50;2.30;;;4.10;99.90;;;;;;5036427;28;20677;-89
2020/12/29 00:56:10;;;;;;;3.30;1.58;;;3.70;99.90;;;;;;5036737;28;20464;-89
2020/12/29 00:58:37;;;;;;;2.55;1.75;;;3.70;99.90;;;;;;5036516;28;20213;-91
2020/12/29 01:01:04;;;;;;;2.55;1.73;;;2.40;99.90;;;;;;5036143;28;20235;-89
2020/12/29 01:03:31;;;;;;;3.10;2.10;;;2.50;99.90;;;;;;5036648;28;20210;-92
2020/12/29 01:05:58;;;;;;;2.92;1.80;;;3.00;99.90;;;;;;5036196;28;20457;-91
2020/12/29 01:08:25;;;;;;;4.17;2.17;;;4.10;99.90;;;;;;5016313;28;20273;-89
2020/12/29 01:10:53;;;;;;;3.67;1.90;;;2.50;99.90;;;;;;5026539;28;20484;-88
2020/12/29 01:13:20;;;;;;;3.10;1.67;;;3.00;99.90;;;;;;5036641;28;20301;-89
2020/12/29 01:15:47;;;;;;;3.27;2.10;;;2.00;99.90;;;;;;5017557;28;20452;-89
2020/12/29 01:18:14;;;;;;;3.20;1.83;;;3.80;99.90;;;;;;5016793;28;20429;-89
2020/12/29 01:20:40;;;;;;;2.78;1.80;;;2.50;99.90;;;;;;5016320;28;20512;-88
2020/12/29 01:23:08;;;;;;;3.38;1.65;;;3.60;99.90;;;;;;5015999;28;20237;-90
2020/12/29 01:25:40;;;;;;;4.27;1.60;;;2.10;99.90;;;;;;5016682;28;20590;-90
2020/12/29 01:28:06;;;;;;;3.22;1.58;;;2.50;99.90;;;;;;5016513;28;20478;-88
2020/12/29 01:30:33;;;;;;;7.03;1.67;;;2.50;99.90;;;;;;5015508;28;20229;-91
2020/12/29 01:33:00;;;;;;;2.40;1.77;;;2.60;99.90;;;;;;5014875;28;20277;-90
2020/12/29 01:35:26;;;;;;;4.60;1.57;;;2.90;99.90;;;;;;5016279;28;20643;-90
2020/12/29 01:37:53;;;;;;;3.60;1.90;;;1.80;99.90;;;;;;5015932;28;20517;-91
2020/12/29 01:40:20;;;;;;;2.78;1.70;;;1.70;99.90;;;;;;5016202;28;20207;-92
2020/12/29 01:42:47;;;;;;;2.38;1.70;;;2.40;99.90;;;;;;5016143;28;20229;-91
2020/12/29 01:45:16;;;;;;;2.33;1.63;;;1.60;99.90;;;;;;5016514;28;20215;-89
2020/12/29 01:47:43;;;;;;;3.00;2.10;;;2.20;99.90;;;;;;5016895;28;20227;-90
2020/12/29 01:50:12;;;;;;;2.28;1.67;;;1.90;99.90;;;;;;5016676;28;20300;-89
2020/12/29 01:52:38;;;;;;;3.70;2.15;;;1.10;99.90;;;;;;5016405;28;20277;-90
2020/12/29 01:55:07;;;;;;;4.07;1.88;;;1.80;99.90;;;;;;5016188;28;20236;-89
2020/12/29 01:57:36;;;;;;;3.75;1.90;;;1.50;99.90;;;;;;5016968;28;20217;-89
2020/12/29 02:00:07;;;;;;;2.40;1.57;;;1.50;99.90;;;;;;5016602;28;20219;-89
2020/12/29 02:02:33;;;;;;;3.15;1.58;;;1.10;99.90;;;;;;5016720;28;20463;-90
2020/12/29 02:05:00;;;;;;;4.07;1.75;;;1.40;99.90;;;;;;5015903;28;20210;-90
2020/12/29 02:07:27;;;;;;;2.35;1.85;;;1.40;99.90;;;;;;5015869;28;20207;-90
2020/12/29 02:09:54;;;;;;;3.22;1.83;;;1.30;99.90;;;;;;5015467;28;20259;-90
2020/12/29 02:12:26;;;;;;;4.75;1.98;;;1.30;99.90;;;;;;5016320;28;20218;-89
2020/12/29 02:14:54;;;;;;;3.65;1.55;;;1.60;99.90;;;;;;5015916;28;20242;-89
2020/12/29 02:17:21;;;;;;;3.80;1.80;;;1.30;99.90;;;;;;5024395;28;20270;-90
2020/12/29 02:19:48;;;;;;;2.35;1.63;;;1.30;99.90;;;;;;5026048;28;20281;-91
2020/12/29 02:22:19;;;;;;;2.55;1.60;;;1.30;99.90;;;;;;5017885;28;20217;-90
2020/12/29 02:24:54;;;;;;;3.33;1.70;;;1.20;99.90;;;;;;5016006;28;20214;-90
2020/12/29 02:27:22;;;;;;;3.63;2.03;;;1.20;99.90;;;;;;5016261;28;20206;-89
2020/12/29 02:29:49;;;;;;;2.08;1.30;;;1.20;99.90;;;;;;5015374;28;20318;-89
2020/12/29 02:32:16;;;;;;;3.58;1.50;;;1.10;99.90;;;;;;5014996;28;20238;-90
2020/12/29 02:34:43;;;;;;;2.10;1.35;;;1.10;99.90;;;;;;5015642;28;20579;-90
2020/12/29 02:37:10;;;;;;;2.22;1.58;;;1.10;99.90;;;;;;5015137;28;20209;-88
2020/12/29 02:39:40;;;;;;;3.20;1.75;;;1.00;99.90;;;;;;5015883;28;20655;-89
2020/12/29 02:42:07;;;;;;;2.40;1.45;;;1.00;99.90;;;;;;5014860;28;20205;-89
2020/12/29 02:44:34;;;;;;;3.17;1.88;;;0.90;99.90;;;;;;5015261;28;20203;-89
2020/12/29 02:47:01;;;;;;;2.47;1.45;;;0.90;99.90;;;;;;5014975;28;20548;-89
2020/12/29 02:49:28;;;;;;;3.03;1.90;;;0.90;99.90;;;;;;5015317;28;20250;-89
2020/12/29 02:51:56;;;;;;;2.75;1.58;;;0.80;99.90;;;;;;5014918;28;20563;-89
2020/12/29 02:54:24;;;;;;;2.58;1.75;;;0.80;99.90;;;;;;5015076;28;20257;-91
2020/12/29 02:56:51;;;;;;;3.08;1.90;;;0.80;99.90;;;;;;5014684;28;20317;-90
2020/12/29 02:59:18;;;;;;;3.83;1.70;;;0.80;99.90;;;;;;5015117;28;20231;-89
2020/12/29 03:01:44;;;;;;;4.40;2.10;;;0.80;99.90;;;;;;5014594;28;20222;-90
2020/12/29 03:04:11;;;;;;;3.60;2.10;;;0.80;99.90;;;;;;5015165;28;20308;-91
2020/12/29 03:06:37;;;;;;;3.15;2.13;;;0.80;99.90;;;;;;5016086;28;20301;-91
2020/12/29 03:09:04;;;;;;;2.25;1.80;;;0.80;99.90;;;;;;5015043;28;20293;-90
2020/12/29 03:11:32;;;;;;;3.65;2.00;;;0.70;99.90;;;;;;5015070;28;20258;-90
2020/12/29 03:14:05;;;;;;;4.20;1.80;;;0.70;99.90;;;;;;5015275;28;20235;-88
2020/12/29 03:16:32;;;;;;;5.00;2.10;;;0.70;99.90;;;;;;5015550;28;20279;-91
2020/12/29 03:18:58;;;;;;;3.28;1.73;;;0.70;99.90;;;;;;5015492;28;20207;-91
2020/12/29 03:21:25;;;;;;;4.07;2.05;;;0.60;99.90;;;;;;5017957;28;20217;-91
2020/12/29 03:23:51;;;;;;;3.05;2.22;;;0.70;99.90;;;;;;5018425;28;20639;-88
2020/12/29 03:26:18;;;;;;;2.97;1.92;;;0.70;99.90;;;;;;5018853;28;20247;-90
2020/12/29 03:28:45;;;;;;;3.00;1.98;;;0.70;99.90;;;;;;5018850;28;20364;-89
2020/12/29 03:31:13;;;;;;;4.10;3.15;;;0.70;99.90;;;;;;5017771;28;20246;-90
2020/12/29 03:33:40;;;;;;;4.65;2.53;;;0.80;99.90;;;;;;5018779;28;20223;-90
2020/12/29 03:36:06;;;;;;;3.35;2.20;;;0.90;99.90;;;;;;5017971;28;20209;-88
2020/12/29 03:38:33;;;;;;;3.30;2.17;;;0.90;99.90;;;;;;5018465;28;20270;-87
2020/12/29 03:41:00;;;;;;;4.90;1.98;;;1.00;99.90;;;;;;5018317;28;20294;-90
2020/12/29 03:43:27;;;;;;;3.50;2.15;;;1.00;99.90;;;;;;5018008;28;20290;-89
2020/12/29 03:45:53;;;;;;;3.15;2.10;;;1.10;99.90;;;;;;5018285;28;20216;-85
2020/12/29 03:48:22;;;;;;;2.70;2.10;;;1.20;99.90;;;;;;5018143;28;20293;-92
2020/12/29 03:50:49;;;;;;;3.45;1.92;;;1.20;99.90;;;;;;5017882;28;20317;-89
2020/12/29 03:53:16;;;;;;;3.17;1.88;;;1.20;99.90;;;;;;5018662;28;20212;-88
2020/12/29 03:55:43;;;;;;;2.95;2.20;;;1.20;99.90;;;;;;5018141;28;20211;-90
2020/12/29 03:58:09;;;;;;;4.70;2.28;;;1.10;99.90;;;;;;5018244;28;20213;-88
2020/12/29 04:00:37;;;;;;;3.60;2.67;;;1.10;99.90;;;;;;5018003;28;20209;-89
2020/12/29 04:03:04;;;;;;;3.00;2.13;;;1.10;99.90;;;;;;5017755;28;20658;-89
2020/12/29 04:05:34;;;;;;;4.47;2.45;;;1.00;99.90;;;;;;5017875;28;20326;-90
2020/12/29 04:08:00;;;;;;;3.30;2.33;;;1.00;99.90;;;;;;5018777;28;20215;-90
2020/12/29 04:10:27;;;;;;;3.22;2.70;;;1.00;99.90;;;;;;5018989;28;20246;-89
2020/12/29 04:12:53;;;;;;;2.55;2.00;;;0.90;99.90;;;;;;5019956;28;20294;-89
2020/12/29 04:15:20;;;;;;;9.25;2.75;;;0.90;99.90;;;;;;5017548;28;20246;-88
2020/12/29 04:17:46;;;;;;;4.25;2.47;;;0.90;99.90;;;;;;5017071;28;20234;-88
2020/12/29 04:20:13;;;;;;;3.50;2.70;;;0.90;99.90;;;;;;5017449;28;20253;-88
2020/12/29 04:22:42;;;;;;;3.70;2.30;;;1.00;99.90;;;;;;5017890;28;20269;-91
2020/12/29 04:25:11;;;;;;;2.92;2.08;;;1.00;99.90;;;;;;5017950;28;20215;-91
2020/12/29 04:27:40;;;;;;;3.13;2.13;;;1.20;99.90;;;;;;5017899;28;20302;-86
2020/12/29 04:30:08;;;;;;;4.55;2.70;;;1.20;99.90;;;;;;5017479;28;20223;-90
2020/12/29 04:32:34;;;;;;;4.15;2.53;;;1.30;99.90;;;;;;5015453;28;20224;-90
2020/12/29 04:35:01;;;;;;;4.68;2.83;;;1.40;99.90;;;;;;5016549;28;20206;-90
2020/12/29 04:37:28;;;;;;;3.25;2.10;;;1.40;99.90;;;;;;5026050;28;20233;-88
2020/12/29 04:39:56;;;;;;;4.40;2.47;;;1.50;99.90;;;;;;5021477;28;20211;-89
2020/12/29 04:42:24;;;;;;;3.53;2.55;;;1.60;99.90;;;;;;5017683;28;20306;-89
2020/12/29 04:44:52;;;;;;;4.53;2.63;;;1.60;99.90;;;;;;5017430;28;20225;-89
2020/12/29 04:47:19;;;;;;;3.33;2.67;;;1.70;99.90;;;;;;5017364;28;20295;-89
2020/12/29 04:49:48;;;;;;;3.58;2.83;;;1.70;99.90;;;;;;5016933;28;20255;-88
2020/12/29 04:52:15;;;;;;;4.57;2.25;;;1.80;99.90;;;;;;5016882;28;20213;-87
2020/12/29 04:54:41;;;;;;;4.35;2.88;;;1.80;99.90;;;;;;5017053;28;20210;-88
2020/12/29 04:57:10;;;;;;;2.38;1.70;;;1.80;99.90;;;;;;5017216;28;20218;-87
2020/12/29 04:59:37;;;;;;;5.75;3.45;;;1.80;99.90;;;;;;5017154;28;20240;-89
2020/12/29 05:02:05;;;;;;;2.97;2.40;;;1.80;99.90;;;;;;5015431;28;20550;-90
2020/12/29 05:04:31;;;;;;;5.05;2.47;;;1.80;99.90;;;;;;5016631;28;20218;-88
2020/12/29 05:06:59;;;;;;;4.75;2.80;;;1.80;99.90;;;;;;5016862;28;20202;-90
2020/12/29 05:09:27;;;;;;;3.20;2.20;;;1.80;99.90;;;;;;5016236;28;20249;-89
2020/12/29 05:11:57;;;;;;;3.63;2.20;;;1.80;99.90;;;;;;5015980;28;20207;-93
2020/12/29 05:14:24;;;;;;;3.75;2.40;;;1.80;99.90;;;;;;5016303;28;20242;-89
2020/12/29 05:16:51;;;;;;;4.93;2.70;;;1.90;99.90;;;;;;5015804;28;20213;-89
2020/12/29 05:19:19;;;;;;;4.15;2.28;;;1.90;99.90;;;;;;5015247;28;20476;-89
2020/12/29 05:21:46;;;;;;;3.65;2.25;;;1.90;99.90;;;;;;5016047;28;20309;-89
2020/12/29 05:24:14;;;;;;;3.75;2.65;;;1.90;99.90;;;;;;5015139;28;20218;-88
2020/12/29 05:26:42;;;;;;;2.75;1.92;;;2.00;99.90;;;;;;5015603;28;20292;-89
2020/12/29 05:29:12;;;;;;;4.50;2.67;;;2.00;99.90;;;;;;5015000;28;20636;-84
2020/12/29 05:31:40;;;;;;;4.25;2.70;;;2.00;99.90;;;;;;5010376;28;20210;-87
2020/12/29 05:34:07;;;;;;;5.10;2.97;;;1.90;99.90;;;;;;5014429;28;20242;-86
2020/12/29 05:36:36;;;;;;;3.92;2.20;;;1.90;99.90;;;;;;5014884;28;20245;-89
2020/12/29 05:39:08;;;;;;;4.88;2.53;;;1.80;99.90;;;;;;5014681;28;20226;-87
2020/12/29 05:41:40;;;;;;;3.00;2.20;;;1.80;99.90;;;;;;5014524;28;20243;-87
2020/12/29 05:44:08;;;;;;;3.45;2.22;;;1.70;99.90;;;;;;5014570;28;20711;-87
2020/12/29 05:46:35;;;;;;;3.70;2.30;;;1.70;99.90;;;;;;5015011;28;20649;-87
2020/12/29 05:49:02;;;;;;;3.38;1.90;;;1.60;99.90;;;;;;5014856;28;20203;-87
2020/12/29 05:51:29;;;;;;;4.97;2.13;;;1.50;99.90;;;;;;5015614;28;20218;-86
2020/12/29 05:54:00;;;;;;;4.68;2.45;;;1.40;99.90;;;;;;5015109;28;20203;-92
2020/12/29 05:56:32;;;;;;;4.80;2.03;;;1.30;99.90;;;;;;5015114;28;20213;-87
2020/12/29 05:59:00;;;;;;;4.40;2.17;;;1.20;99.90;;;;;;5015052;28;20207;-88
2020/12/29 06:01:38;;;;;;;2.92;1.95;;;1.10;99.90;;;;;;5014900;28;20284;-86
2020/12/29 06:04:05;;;;;;;2.97;2.17;;;1.10;99.90;;;;;;5014304;28;20605;-87
2020/12/29 06:06:33;;;;;;;2.83;1.70;;;1.00;99.90;;;;;;5014827;28;20238;-87
2020/12/29 06:09:04;;;;;;;3.60;2.35;;;0.90;99.90;;;;;;5014712;28;20250;-87
2020/12/29 06:11:40;;;;;;;3.90;2.60;;;0.80;99.90;;;;;;5014793;28;20211;-87
2020/12/29 06:14:12;;;;;;;11.07;2.40;;;0.80;99.90;;;;;;5016372;28;20309;-87
2020/12/29 06:16:39;;;;;;;3.22;2.45;;;0.70;99.90;;;;;;5015199;28;20196;-87
2020/12/29 06:19:19;;;;;;;2.72;2.10;;;0.70;99.90;;;;;;5014378;28;20209;-87
2020/12/29 06:22:03;;;;;;;3.55;1.75;;;0.70;99.90;;;;;;5014956;28;20207;-87
2020/12/29 06:24:31;;;;;;;4.30;2.50;;;0.60;99.90;;;;;;5013820;28;20730;-88
2020/12/29 06:27:00;;;;;;;7.55;3.00;;;0.60;99.90;;;;;;5014335;28;20594;-93
2020/12/29 06:29:31;;;;;;;4.47;2.78;;;0.60;99.90;;;;;;5014208;28;20241;-87
2020/12/29 06:32:01;;;;;;;7.03;2.90;;;0.60;99.90;;;;;;5013487;28;20296;-92
2020/12/29 06:34:32;;;;;;;5.43;2.28;;;0.50;99.90;;;;;;5013767;28;20350;-86
2020/12/29 06:37:16;;;;;;;3.30;2.47;;;0.50;99.90;;;;;;5014244;28;20290;-88
2020/12/29 06:39:47;;;;;;;6.38;2.90;;;0.50;99.90;;;;;;5014448;28;20197;-86
2020/12/29 06:42:14;;;;;;;3.22;2.28;;;0.50;99.90;;;;;;5013864;28;20565;-87
2020/12/29 06:44:41;;;;;;;4.60;2.88;;;0.50;99.90;;;;;;5014360;28;20248;-87
2020/12/29 06:47:09;;;;;;;3.70;2.50;;;0.50;99.90;;;;;;5013880;28;20220;-87
2020/12/29 06:49:42;;;;;;;5.32;2.88;;;0.40;99.90;;;;;;5014069;28;20291;-87
2020/12/29 06:52:16;;;;;;;7.57;3.30;;;0.40;99.90;;;;;;5013854;28;20287;-89
2020/12/29 06:54:52;;;;;;;4.18;2.60;;;0.30;99.90;;;;;;5016301;28;20242;-87
2020/12/29 06:57:22;;;;;;;6.30;2.85;;;0.30;99.90;;;;;;5021798;28;20326;-88
2020/12/29 06:59:49;;;;;;;4.57;2.80;;;0.30;99.90;;;;;;5020517;28;20282;-88
2020/12/29 07:02:21;;;;;;;5.63;3.42;;;0.30;99.90;;;;;;5018484;28;20220;-89
2020/12/29 07:04:55;;;;;;;6.60;3.15;;;0.30;99.90;;;;;;5020142;28;20270;-88
2020/12/29 07:07:29;;;;;;;4.43;3.17;;;0.30;99.90;;;;;;5020445;28;20341;-88
2020/12/29 07:10:13;;;;;;;5.25;3.55;;;0.30;99.90;;;;;;5020570;28;20219;-88
2020/12/29 07:12:47;;;;;;;6.45;3.30;;;0.40;99.90;;;;;;5020743;28;20227;-88
2020/12/29 07:15:15;;;;;;;4.75;2.83;;;0.30;99.90;;;;;;5032311;28;20295;-88
2020/12/29 07:17:54;;;;;;;4.85;3.15;;;0.40;99.90;;;;;;5040828;28;20210;-88
2020/12/29 07:20:23;;;;;;;5.40;3.63;;;0.40;99.90;;;;;;5040195;28;20263;-89
2020/12/29 07:23:06;;;;;;;5.47;3.30;;;0.50;99.90;;;;;;5040039;28;20217;-89
2020/12/29 07:25:33;;;;;;;4.47;3.53;;;0.60;99.90;;;;;;5040209;28;20187;-88
2020/12/29 07:28:18;;;;;;;9.20;4.38;;;0.60;99.90;;;;;;5040211;28;20214;-88
2020/12/29 07:30:54;;;;;;;7.68;5.50;;;0.70;99.90;;;;;;5040238;28;20319;-88
2020/12/29 07:33:22;;;;;;;8.70;5.88;;;0.80;99.90;;;;;;5028762;28;20393;-87
2020/12/29 07:35:50;;;;;;;9.25;5.00;;;1.00;99.90;;;;;;5038842;28;20243;-88
2020/12/29 07:38:20;;;;;;;10.93;5.72;;;1.10;99.90;;;;;;5038904;28;20212;-88
2020/12/29 07:40:47;;;;;;;7.75;6.28;;;1.30;99.90;;;;;;5040272;28;20584;-89
2020/12/29 07:43:13;;;;;;;8.95;6.03;;;1.40;99.90;;;;;;5038598;28;20257;-88
2020/12/29 07:45:40;;;;;;;9.27;6.40;;;1.50;99.90;;;;;;5039508;28;20210;-88
2020/12/29 07:48:07;;;;;;;9.73;5.65;;;1.60;99.90;;;;;;5039844;28;20217;-88
2020/12/29 07:50:34;;;;;;;7.95;5.80;;;1.60;99.90;;;;;;5038965;28;20572;-87
2020/12/29 07:53:03;;;;;;;8.45;6.28;;;1.80;99.90;;;;;;5038903;28;20231;-88
2020/12/29 07:55:29;;;;;;;10.73;6.22;;;1.80;99.90;;;;;;5032336;28;20585;-86
2020/12/29 07:57:56;;;;;;;7.22;5.88;;;2.00;99.90;;;;;;5040459;28;20194;-87
2020/12/29 08:00:23;;;;;;;12.48;7.28;;;2.10;99.90;;;;;;5019909;28;20197;-86
2020/12/29 08:02:51;;;;;;;7.50;5.93;;;2.20;99.90;;;;;;5026978;28;20220;-86
2020/12/29 08:05:20;;;;;;;12.93;6.88;;;2.30;99.90;;;;;;5019363;28;20241;-86
2020/12/29 08:07:52;;;;;;;9.70;6.00;;;2.30;99.90;;;;;;5023190;28;20278;-87
2020/12/29 08:10:22;;;;;;;12.27;6.78;;;2.40;99.90;;;;;;5036219;28;20527;-86
2020/12/29 08:12:54;;;;;;;9.68;6.07;;;2.50;99.90;;;;;;5036130;28;20240;-88
2020/12/29 08:15:28;;;;;;;8.80;6.00;;;2.60;99.90;;;;;;5036422;28;20238;-89
2020/12/29 08:18:05;;;;;;;9.75;7.00;;;2.60;99.90;;;;;;5037192;28;20742;-88
2020/12/29 08:20:33;;;;;;;9.50;6.47;;;2.60;99.90;;;;;;5029110;28;20225;-87
2020/12/29 08:23:04;;;;;;;8.55;6.85;;;2.70;99.90;;;;;;5036472;28;20473;-88
2020/12/29 08:25:31;;;;;;;9.40;6.37;;;2.80;99.90;;;;;;5036242;28;20240;-88
2020/12/29 08:28:00;;;;;;;9.10;7.27;;;2.90;99.90;;;;;;5036466;28;20513;-86
2020/12/29 08:30:27;;;;;;;10.00;7.07;;;3.00;99.90;;;;;;5035170;28;20503;-88
2020/12/29 08:32:56;;;;;;;8.63;6.93;;;3.00;99.90;;;;;;5032245;28;20543;-89
2020/12/29 08:35:23;;;;;;;8.43;6.77;;;3.00;99.90;;;;;;5028677;28;20531;-88
2020/12/29 08:38:00;;;;;;;7.97;5.40;;;3.00;99.90;;;;;;5028199;28;20549;-89
2020/12/29 08:40:31;;;;;;;10.67;6.10;;;3.10;99.90;;;;;;5028188;28;20436;-88
2020/12/29 08:43:02;;;;;;;7.83;7.03;;;3.10;99.90;;;;;;5024167;28;20488;-89
2020/12/29 08:45:30;;;;;;;10.82;7.13;;;3.10;99.90;;;;;;5030737;28;20749;-88
2020/12/29 08:47:57;;;;;;;12.97;7.10;;;3.00;99.90;;;;;;5023024;28;20207;-88
2020/12/29 08:50:32;;;;;;;9.20;6.50;;;3.10;99.90;;;;;;5024097;28;20472;-90
2020/12/29 08:53:07;;;;;;;11.63;7.00;;;3.20;99.90;;;;;;5027981;28;20531;-88
2020/12/29 08:55:35;;;;;;;8.13;6.20;;;3.30;99.90;;;;;;5022104;28;20946;-88
2020/12/29 08:58:03;;;;;;;11.80;7.47;;;3.30;99.90;;;;;;5028075;28;20454;-88
2020/12/29 09:00:31;;;;;;;14.37;7.33;;;3.30;99.90;;;;;;5025336;28;20488;-88
2020/12/29 09:02:58;;;;;;;11.63;7.03;;;3.40;99.90;;;;;;5029661;28;20533;-88
2020/12/29 09:05:26;;;;;;;8.60;6.70;;;3.40;99.90;;;;;;5025641;28;20457;-88
2020/12/29 09:07:53;;;;;;;9.10;6.93;;;3.50;99.90;;;;;;5025992;28;20548;-88
2020/12/29 09:10:20;;;;;;;10.70;7.33;;;3.50;99.90;;;;;;5029618;28;20513;-89
2020/12/29 09:12:46;;;;;;;11.20;8.70;;;3.50;99.90;;;;;;5036587;28;20539;-87
2020/12/29 09:15:22;;;;;;;8.20;6.17;;;3.50;99.90;;;;;;5029583;28;20477;-88
2020/12/29 09:17:56;;;;;;;11.52;7.45;;;3.60;99.90;;;;;;5024687;28;20468;-88
2020/12/29 09:20:26;;;;;;;9.48;5.82;;;3.60;99.90;;;;;;5027268;28;20476;-90
2020/12/29 09:23:06;;;;;;;10.80;7.10;;;3.80;99.90;;;;;;5024779;28;20533;-89
2020/12/29 09:25:34;;;;;;;9.53;5.93;;;3.70;99.90;;;;;;5025362;28;20484;-88
2020/12/29 09:28:08;;;;;;;7.43;5.80;;;3.80;99.90;;;;;;5035052;28;20525;-89
2020/12/29 09:30:36;;;;;;;7.03;5.67;;;3.80;99.90;;;;;;5035046;28;20850;-89
2020/12/29 09:33:03;;;;;;;11.57;6.60;;;3.90;99.90;;;;;;5031584;28;20580;-90
2020/12/29 09:35:30;;;;;;;9.40;6.47;;;3.90;99.90;;;;;;5034961;28;20465;-89
2020/12/29 09:37:58;;;;;;;8.57;5.93;;;4.00;99.90;;;;;;5034720;28;20769;-89
2020/12/29 09:40:26;;;;;;;9.63;5.67;;;4.10;99.90;;;;;;5035502;28;20464;-89
2020/12/29 09:42:53;;;;;;;9.40;6.40;;;4.00;99.90;;;;;;5033967;28;20476;-90
2020/12/29 09:45:20;;;;;;;6.93;5.27;;;4.10;99.90;;;;;;5034565;28;20465;-88
2020/12/29 09:47:47;;;;;;;9.70;6.33;;;4.20;99.90;;;;;;5034723;28;20465;-88
2020/12/29 09:50:14;;;;;;;10.83;6.37;;;4.20;99.90;;;;;;5034393;28;20576;-89
2020/12/29 09:52:41;;;;;;;7.13;5.20;;;4.20;99.90;;;;;;5035238;28;20518;-88
2020/12/29 09:55:08;;;;;;;9.53;5.07;;;4.10;99.90;;;;;;5034169;28;20428;-88
2020/12/29 09:57:35;;;;;;;10.33;6.00;;;4.10;99.90;;;;;;5034762;28;20465;-88
2020/12/29 10:00:01;;;;;;;7.97;5.37;;;4.10;99.90;;;;;;5034189;28;20555;-88
2020/12/29 10:02:28;;;;;;;11.17;5.53;;;4.00;99.90;;;;;;5032594;28;20535;-89
2020/12/29 10:04:55;;;;;;;13.10;6.13;;;4.00;99.90;;;;;;5034319;28;20824;-89
2020/12/29 10:07:24;;;;;;;10.60;6.60;;;4.00;99.90;;;;;;5035350;28;20481;-88
2020/12/29 10:09:51;;;;;;;12.40;6.67;;;4.00;99.90;;;;;;5034840;28;20479;-88
2020/12/29 10:12:20;;;;;;;8.83;5.90;;;4.20;99.90;;;;;;5034472;28;20477;-89
2020/12/29 10:14:46;;;;;;;7.50;5.67;;;4.20;99.90;;;;;;5025670;28;20848;-89
2020/12/29 10:17:13;;;;;;;8.57;6.10;;;4.20;99.90;;;;;;5013479;28;20478;-89
2020/12/29 10:19:39;;;;;;;9.53;6.70;;;4.30;99.90;;;;;;5014594;28;20548;-87
2020/12/29 10:22:06;;;;;;;10.40;5.83;;;4.30;99.90;;;;;;5014441;28;20504;-88
2020/12/29 10:24:33;;;;;;;10.73;6.13;;;4.30;99.90;;;;;;5014604;28;20545;-87
2020/12/29 10:26:59;;;;;;;10.33;6.33;;;4.30;99.90;;;;;;5014228;28;20467;-87
2020/12/29 10:29:26;;;;;;;13.33;4.87;;;4.40;99.90;;;;;;5013468;28;20456;-88
2020/12/29 10:31:53;;;;;;;11.53;6.97;;;4.40;99.90;;;;;;5009959;28;20486;-88
2020/12/29 10:34:19;;;;;;;10.50;6.30;;;4.30;99.90;;;;;;5003255;28;20515;-88
2020/12/29 10:36:49;;;;;;;8.83;7.30;;;4.30;99.90;;;;;;5002836;28;20486;-89
2020/12/29 10:39:16;;;;;;;10.90;8.17;;;4.00;99.90;;;;;;5004757;28;20482;-88
2020/12/29 10:41:43;;;;;;;10.43;7.90;;;4.10;99.90;;;;;;5014518;28;20446;-89
2020/12/29 10:44:10;;;;;;;12.33;8.20;;;4.00;99.90;;;;;;5013307;28;20559;-88
2020/12/29 10:46:37;;;;;;;15.00;9.50;;;4.10;99.90;;;;;;5014246;28;20458;-89
2020/12/29 10:49:05;;;;;;;11.70;9.50;;;3.90;99.90;;;;;;5014490;28;20544;-89
2020/12/29 10:51:31;;;;;;;16.93;10.33;;;3.90;99.90;;;;;;5014238;28;20485;-89
2020/12/29 10:53:58;;;;;;;16.50;9.97;;;3.90;99.90;;;;;;5014726;28;20493;-88
2020/12/29 10:56:25;;;;;;;17.40;12.43;;;4.00;99.90;;;;;;5013951;28;20529;-88
2020/12/29 10:58:51;;;;;;;14.23;10.43;;;4.00;99.90;;;;;;5014247;28;20538;-88
2020/12/29 11:01:22;;;;;;;17.17;10.70;;;4.10;99.90;;;;;;5013221;28;20509;-89
2020/12/29 11:03:49;;;;;;;16.10;10.73;;;4.10;99.90;;;;;;5014054;28;20457;-88
2020/12/29 11:06:17;;;;;;;12.97;10.70;;;4.20;99.90;;;;;;5013892;28;20930;-88
2020/12/29 11:08:44;;;;;;;16.60;10.73;;;4.20;99.90;;;;;;4998256;28;20458;-88
2020/12/29 11:11:11;;;;;;;11.27;9.80;;;4.30;99.90;;;;;;5014002;28;20543;-88
2020/12/29 11:13:39;;;;;;;17.03;11.17;;;4.30;99.90;;;;;;5014054;28;20509;-88
2020/12/29 11:16:08;;;;;;;17.80;11.27;;;4.20;99.90;;;;;;5014770;28;20478;-88
2020/12/29 11:18:34;;;;;;;17.67;12.27;;;4.10;99.90;;;;;;5013919;28;20461;-88
2020/12/29 11:21:00;;;;;;;16.17;11.13;;;4.10;99.90;;;;;;5014051;28;20535;-89
2020/12/29 11:23:28;;;;;;;14.17;10.83;;;4.10;99.90;;;;;;5013911;28;20494;-90
2020/12/29 11:25:58;;;;;;;16.90;11.93;;;4.00;99.90;;;;;;5014436;28;20510;-90
2020/12/29 11:28:24;;;;;;;18.13;11.30;;;3.80;99.90;;;;;;5019035;28;20453;-90
2020/12/29 11:30:52;;;;;;;22.10;12.43;;;3.80;99.90;;;;;;5030597;28;20466;-91
2020/12/29 11:33:19;;;;;;;17.80;13.67;;;3.80;99.90;;;;;;5003030;28;20554;-90
2020/12/29 11:35:47;;;;;;;18.40;12.90;;;3.80;99.90;;;;;;4995481;28;20439;-92
2020/12/29 11:38:14;;;;;;;17.23;13.05;;;3.80;99.90;;;;;;4995037;28;20443;-92
2020/12/29 11:40:41;;;;;;;23.20;14.60;;;3.80;99.90;;;;;;4996179;28;20299;-91
2020/12/29 11:43:10;;;;;;;21.80;15.80;;;3.70;99.90;;;;;;5014845;28;20466;-91
2020/12/29 11:45:37;;;;;;;25.07;14.83;;;3.60;99.90;;;;;;5021047;28;20461;-93
2020/12/29 11:48:04;;;;;;;25.07;17.40;;;3.60;99.90;;;;;;5021227;28;20462;-91
2020/12/29 11:50:30;;;;;;;24.90;15.20;;;3.70;99.90;;;;;;5020185;28;20494;-91
2020/12/29 11:52:57;;;;;;;26.90;17.47;;;3.70;99.90;;;;;;5020561;28;20464;-91
2020/12/29 11:55:23;;;;;;;19.93;15.87;;;3.70;99.90;;;;;;5020056;28;20903;-93
2020/12/29 11:57:50;;;;;;;29.63;15.50;;;3.70;99.90;;;;;;5021360;28;20489;-92
2020/12/29 12:00:17;;;;;;;27.97;17.50;;;3.70;99.90;;;;;;5021285;28;20552;-93
2020/12/29 12:02:43;;;;;;;31.83;17.00;;;3.60;99.90;;;;;;5022261;28;20493;-92
2020/12/29 12:05:12;;;;;;;24.73;16.60;;;3.60;99.90;;;;;;5020360;28;20465;-92
2020/12/29 12:07:39;;;;;;;27.30;18.30;;;3.70;99.90;;;;;;5024103;28;20931;-93
2020/12/29 12:10:09;;;;;;;23.17;16.27;;;3.70;99.90;;;;;;5023113;28;20868;-91
2020/12/29 12:12:36;;;;;;;29.83;18.47;;;3.70;99.90;;;;;;5021343;28;20534;-92
2020/12/29 12:15:03;;;;;;;31.20;18.57;;;3.70;99.90;;;;;;5022254;28;20572;-92
2020/12/29 12:17:30;;;;;;;25.77;18.20;;;3.80;99.90;;;;;;5020172;28;20917;-92
2020/12/29 12:19:56;;;;;;;21.20;15.87;;;3.80;99.90;;;;;;5028839;28;20521;-91
2020/12/29 12:22:24;;;;;;;24.73;16.40;;;3.80;99.90;;;;;;5035004;28;20465;-91
2020/12/29 12:24:57;;;;;;;29.33;18.83;;;3.90;99.90;;;;;;5029893;28;20489;-92
2020/12/29 12:27:23;;;;;;;26.87;17.63;;;3.90;99.90;;;;;;5030188;28;20580;-91
2020/12/29 12:29:50;;;;;;;32.17;18.83;;;3.80;99.90;;;;;;5030537;28;20455;-92
2020/12/29 12:32:20;;;;;;;31.30;19.93;;;3.80;99.90;;;;;;5025315;28;20454;-91
2020/12/29 12:34:47;;;;;;;31.53;20.07;;;3.80;99.90;;;;;;5029616;28;20458;-91
2020/12/29 12:37:14;;;;;;;33.50;20.42;;;3.80;99.90;;;;;;5028494;28;20464;-91
2020/12/29 12:39:42;;;;;;;33.30;18.87;;;3.80;99.90;;;;;;5031581;28;20203;-90
2020/12/29 12:42:12;;;;;;;30.83;19.97;;;3.90;99.90;;;;;;5032747;28;20464;-91
2020/12/29 12:44:42;;;;;;;29.00;19.67;;;3.90;99.90;;;;;;5032888;28;20516;-90
2020/12/29 12:47:11;;;;;;;27.90;18.30;;;4.00;99.90;;;;;;5030590;28;20469;-91
2020/12/29 12:49:38;;;;;;;33.90;20.70;;;3.90;99.90;;;;;;5032995;28;20446;-90
2020/12/29 12:56:11;;;;;;;28.43;18.50;;;4.10;99.90;;;;;;4853305;29;20938;-90
2020/12/29 12:58:37;;;;;;;31.47;19.93;;;4.20;99.90;;;;;;4874013;28;20523;-90
2020/12/29 13:01:04;;;;;;;30.27;17.87;;;4.20;99.90;;;;;;4999631;28;20436;-89
2020/12/29 13:03:30;;;;;;;27.60;18.60;;;4.20;99.90;;;;;;5015812;28;20839;-89